AIRPORT ID: KEOS

DATE: 2024-04-25 ZULU TIME: 8.35 LOCAL TIME: 4.35


METAR KEOS 250835Z AUTO 13006KT 10SM 16/11 A3005

ALTIMETER: A3005 Q1018

DENSITY ALT: 1500 Ft

WIND DIRECT: 140

WIND SPEED: 6 Gust

WIND CONDITIONS:

VISIBILTY: 10SM 9999M

TEMPERATURE: 60 F 16 C

DEW POINT: 51 F 11 C

HUMID: 73%

LCL: Above 5,000 feet

RADIO CHECK: 0

ADVISARIES: 0

GREETINGS: 0

CONVERSATIONS: 0